sensor_id;sensor_type;location;lat;lon;timestamp;P1;durP1;ratioP1;P2;durP2;ratioP2
19653;SDS011;9975;48.046;7.804;2022-12-26T01:57:14;5.27;;;1.73;;
19653;SDS011;9975;48.046;7.804;2022-12-26T01:59:44;2.83;;;1.23;;
19653;SDS011;9975;48.046;7.804;2022-12-26T02:02:10;2.13;;;1.40;;
19653;SDS011;9975;48.046;7.804;2022-12-26T02:04:37;5.20;;;1.90;;
19653;SDS011;9975;48.046;7.804;2022-12-26T02:07:26;2.50;;;1.40;;
19653;SDS011;9975;48.046;7.804;2022-12-26T02:09:52;1.53;;;1.43;;
19653;SDS011;9975;48.046;7.804;2022-12-26T02:12:25;1.67;;;1.20;;
19653;SDS011;9975;48.046;7.804;2022-12-26T02:14:55;1.30;;;1.10;;
19653;SDS011;9975;48.046;7.804;2022-12-26T02:17:22;2.00;;;1.13;;
19653;SDS011;9975;48.046;7.804;2022-12-26T02:41:36;1.47;;;1.37;;
19653;SDS011;9975;48.046;7.804;2022-12-26T02:47:14;1.73;;;1.53;;
19653;SDS011;9975;48.046;7.804;2022-12-26T02:53:12;1.53;;;1.33;;
19653;SDS011;9975;48.046;7.804;2022-12-26T02:56:13;2.77;;;1.20;;
19653;SDS011;9975;48.046;7.804;2022-12-26T02:59:12;2.40;;;1.30;;
19653;SDS011;9975;48.046;7.804;2022-12-26T03:02:08;1.60;;;1.50;;
19653;SDS011;9975;48.046;7.804;2022-12-26T03:05:20;2.03;;;1.40;;
19653;SDS011;9975;48.046;7.804;2022-12-26T03:08:54;2.10;;;1.77;;
19653;SDS011;9975;48.046;7.804;2022-12-26T03:11:57;1.70;;;1.57;;
19653;SDS011;9975;48.046;7.804;2022-12-26T03:15:00;2.00;;;1.63;;
19653;SDS011;9975;48.046;7.804;2022-12-26T03:17:33;1.63;;;1.07;;
19653;SDS011;9975;48.046;7.804;2022-12-26T03:20:10;2.00;;;1.53;;
19653;SDS011;9975;48.046;7.804;2022-12-26T03:22:45;1.57;;;1.47;;
19653;SDS011;9975;48.046;7.804;2022-12-26T03:25:19;2.63;;;1.57;;
19653;SDS011;9975;48.046;7.804;2022-12-26T03:28:11;3.40;;;1.80;;
19653;SDS011;9975;48.046;7.804;2022-12-26T03:30:36;1.47;;;1.30;;
19653;SDS011;9975;48.046;7.804;2022-12-26T03:33:17;1.70;;;1.60;;
19653;SDS011;9975;48.046;7.804;2022-12-26T03:36:05;1.90;;;1.27;;
19653;SDS011;9975;48.046;7.804;2022-12-26T03:38:48;2.20;;;1.40;;
19653;SDS011;9975;48.046;7.804;2022-12-26T03:42:07;2.60;;;1.50;;
19653;SDS011;9975;48.046;7.804;2022-12-26T03:50:58;1.60;;;1.50;;
19653;SDS011;9975;48.046;7.804;2022-12-26T03:53:51;2.67;;;1.60;;
19653;SDS011;9975;48.046;7.804;2022-12-26T03:57:07;2.00;;;1.67;;
19653;SDS011;9975;48.046;7.804;2022-12-26T04:00:02;1.77;;;1.50;;
19653;SDS011;9975;48.046;7.804;2022-12-26T04:02:49;1.93;;;1.17;;
19653;SDS011;9975;48.046;7.804;2022-12-26T04:05:36;7.03;;;1.20;;
19653;SDS011;9975;48.046;7.804;2022-12-26T04:08:32;2.00;;;1.47;;
19653;SDS011;9975;48.046;7.804;2022-12-26T04:11:31;2.07;;;1.50;;
19653;SDS011;9975;48.046;7.804;2022-12-26T04:14:27;3.33;;;1.30;;
19653;SDS011;9975;48.046;7.804;2022-12-26T04:20:40;1.47;;;1.30;;
19653;SDS011;9975;48.046;7.804;2022-12-26T04:26:33;1.60;;;1.50;;
19653;SDS011;9975;48.046;7.804;2022-12-26T04:29:21;3.27;;;1.40;;
19653;SDS011;9975;48.046;7.804;2022-12-26T04:32:14;1.73;;;1.43;;
19653;SDS011;9975;48.046;7.804;2022-12-26T04:37:56;1.43;;;1.33;;
19653;SDS011;9975;48.046;7.804;2022-12-26T04:40:43;1.63;;;1.53;;
19653;SDS011;9975;48.046;7.804;2022-12-26T04:43:31;3.57;;;1.77;;
19653;SDS011;9975;48.046;7.804;2022-12-26T04:46:17;1.63;;;1.53;;
19653;SDS011;9975;48.046;7.804;2022-12-26T04:48:44;2.13;;;1.50;;
19653;SDS011;9975;48.046;7.804;2022-12-26T04:51:30;1.90;;;1.40;;
19653;SDS011;9975;48.046;7.804;2022-12-26T04:53:56;1.77;;;1.67;;
19653;SDS011;9975;48.046;7.804;2022-12-26T04:56:22;1.80;;;1.60;;
19653;SDS011;9975;48.046;7.804;2022-12-26T04:58:48;1.97;;;1.33;;
19653;SDS011;9975;48.046;7.804;2022-12-26T05:01:14;2.97;;;1.90;;
19653;SDS011;9975;48.046;7.804;2022-12-26T05:03:58;1.77;;;1.47;;
19653;SDS011;9975;48.046;7.804;2022-12-26T05:06:43;3.03;;;1.80;;
19653;SDS011;9975;48.046;7.804;2022-12-26T05:09:28;5.80;;;1.53;;
19653;SDS011;9975;48.046;7.804;2022-12-26T05:12:04;1.73;;;1.40;;
19653;SDS011;9975;48.046;7.804;2022-12-26T05:14:31;1.57;;;1.47;;
19653;SDS011;9975;48.046;7.804;2022-12-26T05:16:59;1.60;;;1.23;;
19653;SDS011;9975;48.046;7.804;2022-12-26T05:19:44;2.70;;;1.20;;
19653;SDS011;9975;48.046;7.804;2022-12-26T05:22:30;1.83;;;1.60;;
19653;SDS011;9975;48.046;7.804;2022-12-26T05:25:16;1.90;;;1.30;;
19653;SDS011;9975;48.046;7.804;2022-12-26T05:28:03;1.77;;;1.67;;
19653;SDS011;9975;48.046;7.804;2022-12-26T05:30:48;3.83;;;1.43;;
19653;SDS011;9975;48.046;7.804;2022-12-26T05:33:14;2.40;;;1.60;;
19653;SDS011;9975;48.046;7.804;2022-12-26T05:35:58;8.03;;;1.60;;
19653;SDS011;9975;48.046;7.804;2022-12-26T05:38:24;2.37;;;1.17;;
19653;SDS011;9975;48.046;7.804;2022-12-26T05:40:49;2.80;;;1.70;;
19653;SDS011;9975;48.046;7.804;2022-12-26T05:43:15;1.57;;;1.47;;
19653;SDS011;9975;48.046;7.804;2022-12-26T05:45:42;1.80;;;1.70;;
19653;SDS011;9975;48.046;7.804;2022-12-26T05:48:08;2.50;;;1.63;;
19653;SDS011;9975;48.046;7.804;2022-12-26T05:50:33;1.10;;;1.07;;
19653;SDS011;9975;48.046;7.804;2022-12-26T05:52:59;1.63;;;1.40;;
19653;SDS011;9975;48.046;7.804;2022-12-26T05:55:25;1.30;;;1.20;;
19653;SDS011;9975;48.046;7.804;2022-12-26T05:57:50;1.83;;;1.17;;
19653;SDS011;9975;48.046;7.804;2022-12-26T06:00:16;2.00;;;1.57;;
19653;SDS011;9975;48.046;7.804;2022-12-26T06:02:42;1.57;;;1.40;;
19653;SDS011;9975;48.046;7.804;2022-12-26T06:05:07;2.03;;;1.17;;
19653;SDS011;9975;48.046;7.804;2022-12-26T06:07:33;2.20;;;1.63;;
19653;SDS011;9975;48.046;7.804;2022-12-26T06:09:59;3.07;;;1.70;;
19653;SDS011;9975;48.046;7.804;2022-12-26T06:12:24;1.80;;;1.70;;
19653;SDS011;9975;48.046;7.804;2022-12-26T06:14:50;1.90;;;1.40;;
19653;SDS011;9975;48.046;7.804;2022-12-26T06:17:16;2.07;;;1.70;;
19653;SDS011;9975;48.046;7.804;2022-12-26T06:19:42;1.80;;;1.70;;
19653;SDS011;9975;48.046;7.804;2022-12-26T06:22:07;2.67;;;1.73;;
19653;SDS011;9975;48.046;7.804;2022-12-26T06:24:33;2.23;;;1.80;;
19653;SDS011;9975;48.046;7.804;2022-12-26T06:26:59;1.37;;;1.27;;
19653;SDS011;9975;48.046;7.804;2022-12-26T06:29:25;5.20;;;1.50;;
19653;SDS011;9975;48.046;7.804;2022-12-26T06:31:50;1.80;;;1.70;;
19653;SDS011;9975;48.046;7.804;2022-12-26T06:34:16;5.30;;;1.10;;
19653;SDS011;9975;48.046;7.804;2022-12-26T06:36:42;1.50;;;1.33;;
19653;SDS011;9975;48.046;7.804;2022-12-26T06:39:08;2.30;;;1.70;;
19653;SDS011;9975;48.046;7.804;2022-12-26T06:41:33;1.60;;;1.20;;
19653;SDS011;9975;48.046;7.804;2022-12-26T06:43:59;1.27;;;1.17;;
19653;SDS011;9975;48.046;7.804;2022-12-26T06:46:25;1.70;;;1.60;;
19653;SDS011;9975;48.046;7.804;2022-12-26T06:48:51;5.50;;;2.10;;
19653;SDS011;9975;48.046;7.804;2022-12-26T06:51:18;2.53;;;1.70;;
19653;SDS011;9975;48.046;7.804;2022-12-26T06:53:46;2.10;;;1.50;;
19653;SDS011;9975;48.046;7.804;2022-12-26T06:56:14;2.60;;;1.40;;
19653;SDS011;9975;48.046;7.804;2022-12-26T06:58:41;1.77;;;1.37;;
19653;SDS011;9975;48.046;7.804;2022-12-26T07:01:15;1.77;;;1.47;;
19653;SDS011;9975;48.046;7.804;2022-12-26T07:03:42;1.67;;;1.40;;
19653;SDS011;9975;48.046;7.804;2022-12-26T07:06:12;3.07;;;1.40;;
19653;SDS011;9975;48.046;7.804;2022-12-26T07:09:00;1.47;;;1.30;;
19653;SDS011;9975;48.046;7.804;2022-12-26T07:11:35;3.50;;;1.60;;
19653;SDS011;9975;48.046;7.804;2022-12-26T07:14:02;2.87;;;2.03;;
19653;SDS011;9975;48.046;7.804;2022-12-26T07:16:36;3.63;;;1.83;;
19653;SDS011;9975;48.046;7.804;2022-12-26T07:19:03;2.10;;;1.40;;
19653;SDS011;9975;48.046;7.804;2022-12-26T07:21:29;2.60;;;1.60;;
19653;SDS011;9975;48.046;7.804;2022-12-26T07:23:55;1.20;;;1.10;;
19653;SDS011;9975;48.046;7.804;2022-12-26T07:26:21;3.13;;;1.63;;
19653;SDS011;9975;48.046;7.804;2022-12-26T07:28:48;2.80;;;1.80;;
19653;SDS011;9975;48.046;7.804;2022-12-26T07:31:18;2.87;;;1.63;;
19653;SDS011;9975;48.046;7.804;2022-12-26T07:33:48;3.93;;;1.67;;
19653;SDS011;9975;48.046;7.804;2022-12-26T07:36:15;3.33;;;1.73;;
19653;SDS011;9975;48.046;7.804;2022-12-26T07:38:40;2.73;;;2.03;;
19653;SDS011;9975;48.046;7.804;2022-12-26T07:41:06;1.93;;;1.53;;
19653;SDS011;9975;48.046;7.804;2022-12-26T07:43:50;2.60;;;1.97;;
19653;SDS011;9975;48.046;7.804;2022-12-26T07:46:16;2.20;;;1.80;;
19653;SDS011;9975;48.046;7.804;2022-12-26T07:48:43;1.70;;;1.53;;
19653;SDS011;9975;48.046;7.804;2022-12-26T07:51:08;1.70;;;1.50;;
19653;SDS011;9975;48.046;7.804;2022-12-26T07:53:34;1.60;;;1.50;;
19653;SDS011;9975;48.046;7.804;2022-12-26T07:56:00;1.67;;;1.40;;
19653;SDS011;9975;48.046;7.804;2022-12-26T07:58:26;2.50;;;1.83;;
19653;SDS011;9975;48.046;7.804;2022-12-26T08:00:51;2.70;;;1.73;;
19653;SDS011;9975;48.046;7.804;2022-12-26T08:03:17;2.90;;;1.70;;
19653;SDS011;9975;48.046;7.804;2022-12-26T08:05:43;3.43;;;1.87;;
19653;SDS011;9975;48.046;7.804;2022-12-26T08:08:10;1.70;;;1.53;;
19653;SDS011;9975;48.046;7.804;2022-12-26T08:10:35;2.03;;;1.83;;
19653;SDS011;9975;48.046;7.804;2022-12-26T08:13:02;3.63;;;2.10;;
19653;SDS011;9975;48.046;7.804;2022-12-26T08:15:28;2.60;;;1.80;;
19653;SDS011;9975;48.046;7.804;2022-12-26T08:17:53;2.53;;;1.90;;
19653;SDS011;9975;48.046;7.804;2022-12-26T08:20:19;3.53;;;2.97;;
19653;SDS011;9975;48.046;7.804;2022-12-26T08:22:44;3.83;;;2.73;;
19653;SDS011;9975;48.046;7.804;2022-12-26T08:25:10;2.40;;;2.20;;
19653;SDS011;9975;48.046;7.804;2022-12-26T08:27:36;5.83;;;2.30;;
19653;SDS011;9975;48.046;7.804;2022-12-26T08:30:01;4.10;;;1.90;;
19653;SDS011;9975;48.046;7.804;2022-12-26T08:32:27;5.20;;;2.93;;
19653;SDS011;9975;48.046;7.804;2022-12-26T08:34:53;2.63;;;1.80;;
19653;SDS011;9975;48.046;7.804;2022-12-26T08:37:19;4.63;;;3.47;;
19653;SDS011;9975;48.046;7.804;2022-12-26T08:39:44;2.73;;;2.47;;
19653;SDS011;9975;48.046;7.804;2022-12-26T08:42:10;3.43;;;2.00;;
19653;SDS011;9975;48.046;7.804;2022-12-26T08:44:37;2.03;;;1.93;;
19653;SDS011;9975;48.046;7.804;2022-12-26T08:47:02;4.50;;;2.77;;
19653;SDS011;9975;48.046;7.804;2022-12-26T08:49:30;3.73;;;2.63;;
19653;SDS011;9975;48.046;7.804;2022-12-26T08:51:56;4.83;;;2.93;;
19653;SDS011;9975;48.046;7.804;2022-12-26T08:54:21;3.53;;;2.60;;
19653;SDS011;9975;48.046;7.804;2022-12-26T08:56:47;4.17;;;3.70;;
19653;SDS011;9975;48.046;7.804;2022-12-26T08:59:13;5.20;;;3.07;;
19653;SDS011;9975;48.046;7.804;2022-12-26T09:01:39;5.77;;;3.30;;
19653;SDS011;9975;48.046;7.804;2022-12-26T09:04:04;2.67;;;2.30;;
19653;SDS011;9975;48.046;7.804;2022-12-26T09:06:33;4.10;;;2.60;;
19653;SDS011;9975;48.046;7.804;2022-12-26T09:09:01;5.00;;;2.73;;
19653;SDS011;9975;48.046;7.804;2022-12-26T09:11:27;5.67;;;3.60;;
19653;SDS011;9975;48.046;7.804;2022-12-26T09:13:54;4.50;;;3.40;;
19653;SDS011;9975;48.046;7.804;2022-12-26T09:16:23;6.00;;;2.83;;
19653;SDS011;9975;48.046;7.804;2022-12-26T09:18:55;4.50;;;2.57;;
19653;SDS011;9975;48.046;7.804;2022-12-26T09:21:23;3.80;;;2.90;;
19653;SDS011;9975;48.046;7.804;2022-12-26T09:23:49;7.63;;;3.50;;
19653;SDS011;9975;48.046;7.804;2022-12-26T09:26:16;4.63;;;3.67;;
19653;SDS011;9975;48.046;7.804;2022-12-26T09:28:43;3.57;;;3.10;;
19653;SDS011;9975;48.046;7.804;2022-12-26T09:31:12;8.17;;;4.30;;
19653;SDS011;9975;48.046;7.804;2022-12-26T09:33:39;12.00;;;6.00;;
19653;SDS011;9975;48.046;7.804;2022-12-26T09:36:08;5.23;;;4.10;;
19653;SDS011;9975;48.046;7.804;2022-12-26T09:38:36;8.20;;;4.40;;
19653;SDS011;9975;48.046;7.804;2022-12-26T09:46:47;5.97;;;3.40;;
19653;SDS011;9975;48.046;7.804;2022-12-26T09:49:28;5.00;;;3.77;;
19653;SDS011;9975;48.046;7.804;2022-12-26T09:52:01;5.97;;;3.90;;
19653;SDS011;9975;48.046;7.804;2022-12-26T09:54:38;8.10;;;3.60;;
19653;SDS011;9975;48.046;7.804;2022-12-26T09:57:14;9.60;;;4.53;;
19653;SDS011;9975;48.046;7.804;2022-12-26T09:59:53;5.90;;;4.10;;
19653;SDS011;9975;48.046;7.804;2022-12-26T10:02:22;6.97;;;3.73;;
19653;SDS011;9975;48.046;7.804;2022-12-26T10:04:49;6.23;;;4.10;;
19653;SDS011;9975;48.046;7.804;2022-12-26T10:25:56;4.90;;;3.97;;
19653;SDS011;9975;48.046;7.804;2022-12-26T10:28:44;8.40;;;4.10;;
19653;SDS011;9975;48.046;7.804;2022-12-26T10:31:19;9.20;;;4.40;;
19653;SDS011;9975;48.046;7.804;2022-12-26T10:34:20;4.33;;;3.87;;
19653;SDS011;9975;48.046;7.804;2022-12-26T10:37:11;5.10;;;3.37;;
19653;SDS011;9975;48.046;7.804;2022-12-26T10:39:43;6.70;;;3.60;;
19653;SDS011;9975;48.046;7.804;2022-12-26T10:42:35;7.50;;;3.03;;
19653;SDS011;9975;48.046;7.804;2022-12-26T10:47:47;5.57;;;3.50;;
19653;SDS011;9975;48.046;7.804;2022-12-26T10:50:18;5.30;;;3.47;;
19653;SDS011;9975;48.046;7.804;2022-12-26T10:52:47;6.20;;;3.10;;
19653;SDS011;9975;48.046;7.804;2022-12-26T10:55:14;3.70;;;2.53;;
19653;SDS011;9975;48.046;7.804;2022-12-26T10:57:43;4.00;;;3.03;;
19653;SDS011;9975;48.046;7.804;2022-12-26T11:02:44;7.13;;;2.63;;
19653;SDS011;9975;48.046;7.804;2022-12-26T11:05:25;5.03;;;2.87;;
19653;SDS011;9975;48.046;7.804;2022-12-26T11:07:52;3.13;;;1.87;;
19653;SDS011;9975;48.046;7.804;2022-12-26T11:10:21;3.03;;;1.90;;
19653;SDS011;9975;48.046;7.804;2022-12-26T11:12:52;2.20;;;1.90;;
19653;SDS011;9975;48.046;7.804;2022-12-26T11:15:33;5.50;;;1.63;;
19653;SDS011;9975;48.046;7.804;2022-12-26T11:18:08;5.60;;;3.33;;
19653;SDS011;9975;48.046;7.804;2022-12-26T11:20:48;2.70;;;1.57;;
19653;SDS011;9975;48.046;7.804;2022-12-26T11:23:21;2.70;;;1.83;;
19653;SDS011;9975;48.046;7.804;2022-12-26T11:25:49;3.50;;;1.50;;
19653;SDS011;9975;48.046;7.804;2022-12-26T11:28:26;4.60;;;2.13;;
19653;SDS011;9975;48.046;7.804;2022-12-26T11:30:57;1.33;;;1.23;;
19653;SDS011;9975;48.046;7.804;2022-12-26T11:33:26;1.33;;;0.97;;
19653;SDS011;9975;48.046;7.804;2022-12-26T11:38:27;1.73;;;1.30;;
19653;SDS011;9975;48.046;7.804;2022-12-26T11:41:03;7.30;;;5.27;;
19653;SDS011;9975;48.046;7.804;2022-12-26T11:43:55;3.50;;;1.83;;
19653;SDS011;9975;48.046;7.804;2022-12-26T11:54:56;3.47;;;1.20;;
19653;SDS011;9975;48.046;7.804;2022-12-26T11:57:29;3.60;;;0.83;;
19653;SDS011;9975;48.046;7.804;2022-12-26T12:00:17;5.13;;;1.70;;
19653;SDS011;9975;48.046;7.804;2022-12-26T12:02:44;1.10;;;1.00;;
19653;SDS011;9975;48.046;7.804;2022-12-26T12:05:14;0.93;;;0.70;;
19653;SDS011;9975;48.046;7.804;2022-12-26T12:07:51;1.50;;;1.30;;
19653;SDS011;9975;48.046;7.804;2022-12-26T12:15:50;1.50;;;1.40;;
19653;SDS011;9975;48.046;7.804;2022-12-26T12:27:22;2.43;;;1.90;;
19653;SDS011;9975;48.046;7.804;2022-12-26T12:35:14;4.20;;;1.50;;
19653;SDS011;9975;48.046;7.804;2022-12-26T12:40:43;1.50;;;0.93;;
19653;SDS011;9975;48.046;7.804;2022-12-26T12:43:19;2.30;;;1.00;;
19653;SDS011;9975;48.046;7.804;2022-12-26T12:49:15;3.27;;;1.13;;
19653;SDS011;9975;48.046;7.804;2022-12-26T13:00:24;0.50;;;0.50;;
19653;SDS011;9975;48.046;7.804;2022-12-26T13:03:24;1.20;;;1.10;;
19653;SDS011;9975;48.046;7.804;2022-12-26T13:06:19;2.43;;;1.17;;
19653;SDS011;9975;48.046;7.804;2022-12-26T13:11:33;0.93;;;0.70;;
19653;SDS011;9975;48.046;7.804;2022-12-26T13:16:51;2.07;;;0.80;;
19653;SDS011;9975;48.046;7.804;2022-12-26T13:20:00;1.17;;;0.80;;
19653;SDS011;9975;48.046;7.804;2022-12-26T13:22:40;2.80;;;0.90;;
19653;SDS011;9975;48.046;7.804;2022-12-26T13:25:30;10.80;;;1.17;;
19653;SDS011;9975;48.046;7.804;2022-12-26T13:28:01;1.83;;;1.37;;
19653;SDS011;9975;48.046;7.804;2022-12-26T13:30:36;1.13;;;1.03;;
19653;SDS011;9975;48.046;7.804;2022-12-26T13:33:03;1.13;;;1.10;;
19653;SDS011;9975;48.046;7.804;2022-12-26T13:35:49;1.07;;;0.93;;
19653;SDS011;9975;48.046;7.804;2022-12-26T13:41:23;1.40;;;1.17;;
19653;SDS011;9975;48.046;7.804;2022-12-26T13:51:54;1.33;;;1.23;;
19653;SDS011;9975;48.046;7.804;2022-12-26T13:54:22;2.43;;;0.60;;
19653;SDS011;9975;48.046;7.804;2022-12-26T13:56:56;2.30;;;0.90;;
19653;SDS011;9975;48.046;7.804;2022-12-26T13:59:49;1.70;;;1.00;;
19653;SDS011;9975;48.046;7.804;2022-12-26T14:05:39;1.27;;;1.13;;
19653;SDS011;9975;48.046;7.804;2022-12-26T14:17:39;1.43;;;1.00;;
19653;SDS011;9975;48.046;7.804;2022-12-26T14:28:46;1.57;;;1.37;;
19653;SDS011;9975;48.046;7.804;2022-12-26T14:40:31;1.90;;;1.20;;
19653;SDS011;9975;48.046;7.804;2022-12-26T14:45:39;0.90;;;0.70;;
19653;SDS011;9975;48.046;7.804;2022-12-26T14:50:53;0.80;;;0.80;;
19653;SDS011;9975;48.046;7.804;2022-12-26T14:55:50;0.70;;;0.70;;
19653;SDS011;9975;48.046;7.804;2022-12-26T15:20:48;1.33;;;0.77;;
19653;SDS011;9975;48.046;7.804;2022-12-26T15:32:07;1.00;;;0.90;;
19653;SDS011;9975;48.046;7.804;2022-12-26T15:40:35;1.17;;;1.00;;
19653;SDS011;9975;48.046;7.804;2022-12-26T15:48:51;4.63;;;1.87;;
19653;SDS011;9975;48.046;7.804;2022-12-26T16:02:38;2.33;;;2.13;;
19653;SDS011;9975;48.046;7.804;2022-12-26T16:10:36;2.67;;;1.70;;
19653;SDS011;9975;48.046;7.804;2022-12-26T16:15:49;1.40;;;1.30;;
19653;SDS011;9975;48.046;7.804;2022-12-26T16:18:25;1.10;;;0.97;;
19653;SDS011;9975;48.046;7.804;2022-12-26T16:20:56;1.57;;;1.47;;
19653;SDS011;9975;48.046;7.804;2022-12-26T16:23:43;2.47;;;1.93;;
19653;SDS011;9975;48.046;7.804;2022-12-26T16:26:17;2.53;;;2.03;;
19653;SDS011;9975;48.046;7.804;2022-12-26T16:28:54;3.53;;;2.77;;
19653;SDS011;9975;48.046;7.804;2022-12-26T16:31:23;2.97;;;2.77;;
19653;SDS011;9975;48.046;7.804;2022-12-26T16:33:51;2.10;;;0.93;;
19653;SDS011;9975;48.046;7.804;2022-12-26T16:36:19;3.50;;;2.27;;
19653;SDS011;9975;48.046;7.804;2022-12-26T16:38:50;1.50;;;1.40;;
19653;SDS011;9975;48.046;7.804;2022-12-26T16:41:23;5.40;;;1.80;;
19653;SDS011;9975;48.046;7.804;2022-12-26T16:43:50;3.90;;;1.53;;
19653;SDS011;9975;48.046;7.804;2022-12-26T16:46:28;2.27;;;2.00;;
19653;SDS011;9975;48.046;7.804;2022-12-26T16:48:56;1.60;;;1.43;;
19653;SDS011;9975;48.046;7.804;2022-12-26T16:51:44;1.43;;;1.33;;
19653;SDS011;9975;48.046;7.804;2022-12-26T16:54:15;2.00;;;1.47;;
19653;SDS011;9975;48.046;7.804;2022-12-26T16:56:47;1.97;;;1.50;;
19653;SDS011;9975;48.046;7.804;2022-12-26T16:59:22;3.73;;;3.20;;
19653;SDS011;9975;48.046;7.804;2022-12-26T17:01:53;4.43;;;1.87;;
19653;SDS011;9975;48.046;7.804;2022-12-26T17:04:22;1.60;;;1.50;;
19653;SDS011;9975;48.046;7.804;2022-12-26T17:06:53;2.93;;;2.00;;
19653;SDS011;9975;48.046;7.804;2022-12-26T17:09:19;1.97;;;1.20;;
19653;SDS011;9975;48.046;7.804;2022-12-26T17:11:55;2.23;;;1.73;;
19653;SDS011;9975;48.046;7.804;2022-12-26T17:14:31;2.70;;;2.50;;
19653;SDS011;9975;48.046;7.804;2022-12-26T17:17:06;2.00;;;1.70;;
19653;SDS011;9975;48.046;7.804;2022-12-26T17:19:50;8.67;;;3.47;;
19653;SDS011;9975;48.046;7.804;2022-12-26T17:27:41;3.10;;;2.67;;
19653;SDS011;9975;48.046;7.804;2022-12-26T17:32:50;1.93;;;1.57;;
19653;SDS011;9975;48.046;7.804;2022-12-26T17:35:23;1.80;;;1.60;;
19653;SDS011;9975;48.046;7.804;2022-12-26T17:37:50;2.40;;;2.10;;
19653;SDS011;9975;48.046;7.804;2022-12-26T17:40:42;4.47;;;2.90;;
19653;SDS011;9975;48.046;7.804;2022-12-26T17:45:38;2.67;;;2.17;;
19653;SDS011;9975;48.046;7.804;2022-12-26T17:48:05;3.20;;;1.20;;
19653;SDS011;9975;48.046;7.804;2022-12-26T17:50:35;6.97;;;1.63;;
19653;SDS011;9975;48.046;7.804;2022-12-26T17:53:23;3.20;;;1.23;;
19653;SDS011;9975;48.046;7.804;2022-12-26T17:55:54;1.30;;;1.20;;
19653;SDS011;9975;48.046;7.804;2022-12-26T17:58:21;4.27;;;1.77;;
19653;SDS011;9975;48.046;7.804;2022-12-26T18:00:47;1.60;;;1.43;;
19653;SDS011;9975;48.046;7.804;2022-12-26T18:03:13;2.73;;;1.70;;
19653;SDS011;9975;48.046;7.804;2022-12-26T18:05:39;1.67;;;1.37;;
19653;SDS011;9975;48.046;7.804;2022-12-26T18:08:18;2.47;;;1.70;;
19653;SDS011;9975;48.046;7.804;2022-12-26T18:11:05;2.00;;;1.33;;
19653;SDS011;9975;48.046;7.804;2022-12-26T18:13:35;1.73;;;1.53;;
19653;SDS011;9975;48.046;7.804;2022-12-26T18:16:01;5.90;;;1.27;;
19653;SDS011;9975;48.046;7.804;2022-12-26T18:21:04;3.57;;;2.20;;
19653;SDS011;9975;48.046;7.804;2022-12-26T18:23:31;4.70;;;2.07;;
19653;SDS011;9975;48.046;7.804;2022-12-26T18:26:01;9.50;;;2.87;;
19653;SDS011;9975;48.046;7.804;2022-12-26T18:28:31;4.83;;;2.10;;
19653;SDS011;9975;48.046;7.804;2022-12-26T18:30:58;4.67;;;1.90;;
19653;SDS011;9975;48.046;7.804;2022-12-26T18:33:23;8.23;;;2.70;;
19653;SDS011;9975;48.046;7.804;2022-12-26T18:35:49;2.60;;;1.77;;
19653;SDS011;9975;48.046;7.804;2022-12-26T18:38:17;3.67;;;2.30;;
19653;SDS011;9975;48.046;7.804;2022-12-26T18:40:45;8.50;;;2.50;;
19653;SDS011;9975;48.046;7.804;2022-12-26T18:43:12;3.33;;;2.50;;
19653;SDS011;9975;48.046;7.804;2022-12-26T18:45:38;3.67;;;3.00;;
19653;SDS011;9975;48.046;7.804;2022-12-26T18:48:06;2.60;;;2.17;;
19653;SDS011;9975;48.046;7.804;2022-12-26T18:50:36;2.80;;;2.60;;
19653;SDS011;9975;48.046;7.804;2022-12-26T18:53:02;7.97;;;5.10;;
19653;SDS011;9975;48.046;7.804;2022-12-26T18:55:28;3.63;;;2.60;;
19653;SDS011;9975;48.046;7.804;2022-12-26T18:57:54;2.43;;;1.73;;
19653;SDS011;9975;48.046;7.804;2022-12-26T19:00:20;4.33;;;1.53;;
19653;SDS011;9975;48.046;7.804;2022-12-26T19:02:46;1.60;;;1.40;;
19653;SDS011;9975;48.046;7.804;2022-12-26T19:05:16;2.00;;;1.37;;
19653;SDS011;9975;48.046;7.804;2022-12-26T19:07:57;3.70;;;3.40;;
19653;SDS011;9975;48.046;7.804;2022-12-26T19:10:26;3.37;;;3.13;;
19653;SDS011;9975;48.046;7.804;2022-12-26T19:12:54;3.60;;;3.13;;
19653;SDS011;9975;48.046;7.804;2022-12-26T19:15:21;1.60;;;1.40;;
19653;SDS011;9975;48.046;7.804;2022-12-26T19:17:47;1.57;;;1.47;;
19653;SDS011;9975;48.046;7.804;2022-12-26T19:20:19;1.63;;;1.50;;
19653;SDS011;9975;48.046;7.804;2022-12-26T19:22:47;4.10;;;3.27;;
19653;SDS011;9975;48.046;7.804;2022-12-26T19:25:14;8.23;;;4.07;;
19653;SDS011;9975;48.046;7.804;2022-12-26T19:27:40;2.63;;;2.40;;
19653;SDS011;9975;48.046;7.804;2022-12-26T19:30:06;5.90;;;5.40;;
19653;SDS011;9975;48.046;7.804;2022-12-26T19:32:32;2.93;;;2.70;;
19653;SDS011;9975;48.046;7.804;2022-12-26T19:34:58;2.10;;;0.80;;
19653;SDS011;9975;48.046;7.804;2022-12-26T19:37:25;1.50;;;1.40;;
19653;SDS011;9975;48.046;7.804;2022-12-26T19:39:53;3.93;;;2.67;;
19653;SDS011;9975;48.046;7.804;2022-12-26T19:42:18;8.17;;;5.07;;
19653;SDS011;9975;48.046;7.804;2022-12-26T19:44:44;5.20;;;2.60;;
19653;SDS011;9975;48.046;7.804;2022-12-26T19:47:10;20.30;;;10.60;;
19653;SDS011;9975;48.046;7.804;2022-12-26T19:49:36;6.13;;;4.50;;
19653;SDS011;9975;48.046;7.804;2022-12-26T19:52:07;3.60;;;2.20;;
19653;SDS011;9975;48.046;7.804;2022-12-26T19:54:34;6.17;;;4.50;;
19653;SDS011;9975;48.046;7.804;2022-12-26T19:56:59;5.87;;;5.30;;
19653;SDS011;9975;48.046;7.804;2022-12-26T19:59:26;1.40;;;1.17;;
19653;SDS011;9975;48.046;7.804;2022-12-26T20:01:51;2.83;;;1.73;;
19653;SDS011;9975;48.046;7.804;2022-12-26T20:04:17;5.73;;;4.90;;
19653;SDS011;9975;48.046;7.804;2022-12-26T20:06:43;4.30;;;1.70;;
19653;SDS011;9975;48.046;7.804;2022-12-26T20:09:10;3.90;;;1.10;;
19653;SDS011;9975;48.046;7.804;2022-12-26T20:11:38;0.40;;;0.40;;
19653;SDS011;9975;48.046;7.804;2022-12-26T20:14:10;0.93;;;0.53;;
19653;SDS011;9975;48.046;7.804;2022-12-26T20:16:38;1.57;;;1.47;;
19653;SDS011;9975;48.046;7.804;2022-12-26T20:19:04;1.17;;;0.87;;
19653;SDS011;9975;48.046;7.804;2022-12-26T20:21:29;1.90;;;1.80;;
19653;SDS011;9975;48.046;7.804;2022-12-26T20:23:56;0.70;;;0.60;;
19653;SDS011;9975;48.046;7.804;2022-12-26T20:26:23;3.43;;;1.30;;
19653;SDS011;9975;48.046;7.804;2022-12-26T20:28:50;12.27;;;4.47;;
19653;SDS011;9975;48.046;7.804;2022-12-26T20:31:17;6.47;;;2.10;;
19653;SDS011;9975;48.046;7.804;2022-12-26T20:33:44;4.00;;;2.00;;
19653;SDS011;9975;48.046;7.804;2022-12-26T20:36:13;0.80;;;0.67;;
19653;SDS011;9975;48.046;7.804;2022-12-26T20:38:40;1.37;;;0.60;;
19653;SDS011;9975;48.046;7.804;2022-12-26T20:41:07;2.47;;;1.50;;
19653;SDS011;9975;48.046;7.804;2022-12-26T20:43:33;3.70;;;1.53;;
19653;SDS011;9975;48.046;7.804;2022-12-26T20:46:06;2.10;;;1.27;;
19653;SDS011;9975;48.046;7.804;2022-12-26T20:48:33;5.30;;;1.40;;
19653;SDS011;9975;48.046;7.804;2022-12-26T20:51:01;1.17;;;1.07;;
19653;SDS011;9975;48.046;7.804;2022-12-26T20:53:40;1.00;;;0.77;;
19653;SDS011;9975;48.046;7.804;2022-12-26T20:56:06;1.00;;;0.90;;
19653;SDS011;9975;48.046;7.804;2022-12-26T20:58:32;0.83;;;0.83;;
19653;SDS011;9975;48.046;7.804;2022-12-26T21:01:00;1.60;;;0.80;;
19653;SDS011;9975;48.046;7.804;2022-12-26T21:03:31;1.40;;;1.00;;
19653;SDS011;9975;48.046;7.804;2022-12-26T21:06:05;0.60;;;0.60;;
19653;SDS011;9975;48.046;7.804;2022-12-26T21:08:37;0.70;;;0.60;;
19653;SDS011;9975;48.046;7.804;2022-12-26T21:11:05;1.20;;;0.90;;
19653;SDS011;9975;48.046;7.804;2022-12-26T21:13:33;1.27;;;0.60;;
19653;SDS011;9975;48.046;7.804;2022-12-26T21:16:06;1.20;;;0.93;;
19653;SDS011;9975;48.046;7.804;2022-12-26T21:18:34;0.90;;;0.60;;
19653;SDS011;9975;48.046;7.804;2022-12-26T21:21:04;4.00;;;0.57;;
19653;SDS011;9975;48.046;7.804;2022-12-26T21:23:32;2.80;;;0.80;;
19653;SDS011;9975;48.046;7.804;2022-12-26T21:25:58;0.50;;;0.43;;
19653;SDS011;9975;48.046;7.804;2022-12-26T21:28:24;1.20;;;0.80;;
19653;SDS011;9975;48.046;7.804;2022-12-26T21:30:50;1.17;;;0.67;;
19653;SDS011;9975;48.046;7.804;2022-12-26T21:33:15;1.67;;;1.00;;
19653;SDS011;9975;48.046;7.804;2022-12-26T21:35:41;1.63;;;0.80;;
19653;SDS011;9975;48.046;7.804;2022-12-26T21:38:07;0.67;;;0.50;;